createdAt,value
2023-01-19T06:34:44.826Z,57.19
2023-01-19T06:36:47.772Z,56.96
2023-01-19T06:38:50.437Z,56.67
2023-01-19T06:40:55.084Z,56.32
2023-01-19T06:42:58.167Z,56.25
2023-01-19T06:45:01.110Z,56.06
2023-01-19T06:47:15.997Z,55.97
2023-01-19T06:49:18.898Z,55.94
2023-01-19T06:51:23.617Z,55.77
2023-01-19T06:53:27.981Z,55.75
2023-01-19T06:55:30.762Z,55.49
2023-01-19T06:57:33.424Z,55.72
2023-01-19T06:59:36.191Z,55.48
2023-01-19T07:01:39.022Z,55.55
2023-01-19T07:03:41.754Z,55.24
2023-01-19T07:05:44.523Z,55.21
2023-01-19T07:07:52.638Z,55.15
2023-01-19T07:09:55.514Z,55.21
2023-01-19T07:11:58.284Z,54.98
2023-01-19T07:14:01.214Z,54.95
2023-01-19T07:16:07.349Z,55.03
2023-01-19T07:18:10.874Z,54.87
2023-01-19T07:20:15.152Z,54.91
2023-01-19T07:22:18.338Z,54.81
2023-01-19T07:24:22.365Z,54.80
2023-01-19T07:26:25.305Z,54.70
2023-01-19T07:28:31.296Z,54.60
2023-01-19T07:30:34.191Z,54.75
2023-01-19T07:32:37.073Z,54.47
2023-01-19T07:34:39.831Z,54.68
2023-01-19T07:36:44.909Z,54.52
2023-01-19T07:38:47.552Z,54.56
2023-01-19T07:40:51.747Z,54.37
2023-01-19T07:42:54.656Z,54.32
2023-01-19T07:44:57.574Z,54.41
2023-01-19T07:47:00.281Z,54.26
2023-01-19T07:49:03.132Z,54.24
2023-01-19T07:51:10.451Z,54.21
2023-01-19T07:53:15.251Z,53.98
2023-01-19T07:55:18.207Z,54.03
2023-01-19T07:57:22.753Z,54.03
2023-01-19T07:59:25.833Z,53.92
2023-01-19T08:01:29.615Z,53.84
2023-01-19T08:03:33.950Z,53.86
2023-01-19T08:05:36.880Z,53.82
2023-01-19T08:07:39.740Z,53.85
2023-01-19T08:09:42.549Z,53.71
2023-01-19T08:11:45.343Z,53.70
2023-01-19T08:13:49.656Z,53.78
2023-01-19T08:15:53.291Z,53.58
2023-01-19T08:17:57.754Z,53.56
2023-01-19T08:20:00.636Z,53.61
2023-01-19T08:22:03.771Z,53.48
2023-01-19T08:24:07.091Z,53.44
2023-01-19T08:26:20.366Z,53.34
2023-01-19T08:28:25.314Z,53.30
2023-01-19T08:30:30.290Z,53.03
2023-01-19T08:32:33.032Z,53.21
2023-01-19T08:34:36.210Z,53.10
2023-01-19T08:36:39.151Z,53.12
2023-01-19T08:38:44.651Z,53.02
2023-01-19T08:40:47.661Z,53.08
2023-01-19T08:42:50.696Z,53.10
2023-01-19T08:44:58.041Z,53.06
2023-01-19T08:47:02.816Z,52.99
2023-01-19T08:49:05.539Z,52.80
2023-01-19T08:51:08.394Z,52.82
2023-01-19T08:53:11.415Z,52.68
2023-01-19T08:55:14.205Z,52.75
2023-01-19T08:57:16.907Z,52.88
2023-01-19T08:59:19.672Z,52.67
2023-01-19T09:01:22.718Z,52.86
2023-01-19T09:03:26.932Z,52.80
2023-01-19T09:05:31.763Z,52.84
2023-01-19T09:07:35.712Z,52.63
2023-01-19T09:09:43.345Z,52.60
2023-01-19T09:11:48.329Z,52.69
2023-01-19T09:13:51.308Z,52.70
2023-01-19T09:15:56.254Z,52.57
2023-01-19T09:17:59.301Z,52.57
2023-01-19T09:20:04.531Z,52.57
2023-01-19T09:22:07.341Z,52.69
2023-01-19T09:24:10.144Z,52.39
2023-01-19T09:26:12.902Z,52.52
2023-01-19T09:28:17.694Z,52.45
2023-01-19T09:30:21.551Z,52.41
2023-01-19T09:32:24.335Z,52.29
2023-01-19T09:34:27.323Z,52.30
2023-01-19T09:36:32.631Z,52.49
2023-01-19T09:38:35.915Z,52.50
2023-01-19T09:40:43.653Z,52.06
2023-01-19T09:42:54.476Z,52.09
2023-01-19T09:44:57.132Z,52.30
2023-01-19T09:47:02.408Z,52.09
2023-01-19T09:49:13.377Z,52.05
2023-01-19T09:51:19.418Z,52.10
2023-01-19T09:53:34.980Z,52.11
2023-01-19T09:55:41.149Z,51.96
2023-01-19T09:57:45.063Z,51.93
2023-01-19T09:59:51.246Z,52.00
2023-01-19T10:02:07.676Z,51.96
2023-01-19T10:04:41.394Z,51.94
2023-01-19T10:06:44.939Z,51.75
2023-01-19T10:08:56.728Z,51.75
2023-01-19T10:11:02.202Z,51.78
2023-01-19T10:13:31.233Z,51.70
2023-01-19T10:15:47.368Z,51.80
2023-01-19T10:18:02.941Z,51.76
2023-01-19T10:20:14.738Z,51.67
2023-01-19T10:22:22.178Z,51.78
2023-01-19T10:24:30.022Z,51.57
2023-01-19T10:26:35.656Z,51.55
2023-01-19T10:28:39.914Z,51.63
2023-01-19T10:30:47.624Z,51.54
2023-01-19T10:32:51.016Z,51.58
2023-01-19T10:34:55.670Z,51.45
2023-01-19T10:37:03.767Z,51.47
2023-01-19T10:39:08.203Z,51.41
2023-01-19T10:41:15.737Z,51.40
2023-01-19T10:43:40.339Z,51.38
2023-01-19T10:45:43.406Z,51.45
2023-01-19T10:47:47.678Z,51.25
2023-01-19T10:49:50.785Z,51.57
2023-01-19T10:51:54.571Z,51.52
2023-01-19T10:54:00.831Z,51.28
2023-01-19T10:56:17.753Z,51.54
2023-01-19T10:58:30.103Z,51.37
2023-01-19T11:00:36.531Z,51.72
2023-01-19T11:02:51.660Z,51.57
2023-01-19T11:04:56.702Z,51.48
2023-01-19T11:07:15.180Z,51.63
2023-01-19T11:09:21.076Z,51.49
2023-01-19T11:11:25.731Z,51.62
2023-01-19T11:13:28.527Z,51.57
2023-01-19T11:15:34.853Z,51.70
2023-01-19T11:17:37.987Z,51.43
2023-01-19T11:19:40.810Z,51.46
2023-01-19T11:21:43.764Z,51.30
2023-01-19T11:23:51.200Z,51.25
2023-01-19T11:25:55.981Z,51.38
2023-01-19T11:28:00.424Z,51.31
2023-01-19T11:30:11.463Z,51.26
2023-01-19T11:32:22.454Z,51.48
2023-01-19T11:34:31.803Z,51.35
2023-01-19T11:36:36.576Z,51.23
2023-01-19T11:38:44.595Z,51.21
2023-01-19T11:40:51.829Z,51.40
2023-01-19T11:42:54.659Z,51.38
2023-01-19T11:45:05.149Z,51.45
2023-01-19T11:47:13.730Z,51.34
2023-01-19T11:49:23.094Z,51.43
2023-01-19T11:51:30.965Z,51.60
2023-01-19T11:53:35.085Z,51.38
2023-01-19T11:55:42.508Z,51.36
2023-01-19T11:57:48.176Z,51.42
2023-01-19T11:59:51.136Z,51.26
2023-01-19T12:01:59.791Z,51.29
2023-01-19T12:04:07.792Z,51.27
2023-01-19T12:06:13.674Z,51.29
2023-01-19T12:08:21.811Z,51.21
2023-01-19T12:10:28.107Z,51.24
2023-01-19T12:12:33.373Z,51.28
2023-01-19T12:14:42.187Z,51.18
2023-01-19T12:16:45.581Z,51.27
2023-01-19T12:18:55.466Z,51.15
2023-01-19T12:20:58.874Z,51.38
2023-01-19T12:23:12.841Z,51.08
2023-01-19T12:25:23.834Z,51.17
2023-01-19T12:27:38.793Z,51.17
2023-01-19T12:29:42.803Z,51.14
2023-01-19T12:31:51.606Z,50.90
2023-01-19T12:33:56.737Z,50.86
2023-01-19T12:36:00.944Z,50.82
2023-01-19T12:38:43.663Z,51.14
2023-01-19T12:40:46.991Z,50.74
2023-01-19T12:42:56.973Z,50.89
2023-01-19T12:45:07.730Z,50.94
2023-01-19T12:47:24.579Z,50.77
2023-01-19T12:49:32.494Z,50.60
2023-01-19T12:51:35.614Z,50.94
2023-01-19T12:53:38.445Z,50.77
2023-01-19T12:55:46.768Z,50.77
2023-01-19T12:57:57.669Z,50.73
2023-01-19T13:00:02.613Z,50.62
2023-01-19T13:02:33.546Z,50.75
2023-01-19T13:04:38.466Z,50.75
2023-01-19T13:07:10.903Z,50.67
2023-01-19T13:09:31.356Z,50.56
2023-01-19T13:11:34.779Z,50.50
2023-01-19T13:13:38.709Z,50.59
2023-01-19T13:15:41.772Z,50.63
2023-01-19T13:17:50.897Z,50.54
2023-01-19T13:20:01.798Z,50.55
2023-01-19T13:22:37.625Z,50.41
2023-01-19T13:24:56.998Z,50.43
2023-01-19T13:27:04.441Z,50.44
2023-01-19T13:29:09.614Z,50.33
2023-01-19T13:31:14.346Z,50.39
2023-01-19T13:33:22.322Z,50.18
2023-01-19T13:35:26.755Z,50.17
2023-01-19T13:37:35.052Z,50.25
2023-01-19T13:39:41.382Z,50.32
2023-01-19T13:41:45.568Z,50.35
2023-01-19T13:43:52.709Z,50.28
2023-01-19T13:45:56.407Z,50.18
2023-01-19T13:48:02.459Z,50.15
2023-01-19T13:50:06.193Z,50.25
2023-01-19T13:52:14.672Z,50.00
2023-01-19T13:54:18.094Z,49.90
2023-01-19T13:56:23.582Z,49.83
2023-01-19T13:58:28.039Z,49.91
2023-01-19T14:00:31.618Z,49.78
2023-01-19T14:02:34.498Z,49.79
2023-01-19T14:04:37.354Z,49.85
2023-01-19T14:06:45.896Z,49.82
2023-01-19T14:09:06.729Z,49.91
2023-01-19T14:11:14.895Z,49.88
2023-01-19T14:13:19.806Z,49.75
2023-01-19T14:15:22.728Z,49.77
2023-01-19T14:17:27.731Z,49.74
2023-01-19T14:19:30.629Z,49.99
2023-01-19T14:21:41.816Z,49.95
2023-01-19T14:23:47.982Z,49.87
2023-01-19T14:25:52.204Z,49.77
2023-01-19T14:28:28.338Z,49.76
2023-01-19T14:30:35.839Z,49.59
2023-01-19T14:32:47.711Z,49.75
2023-01-19T14:34:52.728Z,49.79
2023-01-19T14:36:55.675Z,49.79
2023-01-19T14:39:01.095Z,49.70
2023-01-19T14:41:05.527Z,49.76
2023-01-19T14:43:14.289Z,49.55
2023-01-19T14:45:21.243Z,49.62
2023-01-19T14:47:32.132Z,49.57
2023-01-19T14:49:37.076Z,49.61
2023-01-19T14:51:39.979Z,49.53
2023-01-19T14:53:48.745Z,49.77
2023-01-19T14:55:55.539Z,49.63
2023-01-19T14:57:59.680Z,49.52
2023-01-19T15:00:07.353Z,49.55
2023-01-19T15:02:10.635Z,49.43
2023-01-19T15:04:13.614Z,49.38
2023-01-19T15:06:19.747Z,49.46
2023-01-19T15:08:31.332Z,49.65
2023-01-19T15:10:36.299Z,49.26
2023-01-19T15:12:39.273Z,49.31
2023-01-19T15:14:43.397Z,49.32
2023-01-19T15:16:46.724Z,49.24
2023-01-19T15:18:49.421Z,49.41
2023-01-19T15:20:52.239Z,49.26
2023-01-19T15:22:55.007Z,49.17
2023-01-19T15:24:59.945Z,49.38
2023-01-19T15:27:02.792Z,49.24
2023-01-19T15:29:17.431Z,49.36
2023-01-19T15:31:23.297Z,49.10
2023-01-19T15:33:31.560Z,49.09
2023-01-19T15:35:34.325Z,49.25
2023-01-19T15:37:37.518Z,49.08
2023-01-19T15:39:43.553Z,49.16
2023-01-19T15:41:48.852Z,49.08
2023-01-19T15:43:52.736Z,49.17
2023-01-19T15:46:01.239Z,48.92
2023-01-19T15:48:07.051Z,48.90
2023-01-19T15:50:11.370Z,49.06
2023-01-19T15:52:15.410Z,49.05
2023-01-19T15:54:20.164Z,48.86
2023-01-19T15:56:24.826Z,48.97
2023-01-19T15:58:27.524Z,48.92
2023-01-19T16:00:31.249Z,48.89
2023-01-19T16:02:34.301Z,48.88
2023-01-19T16:04:38.660Z,48.76
2023-01-19T16:06:41.604Z,48.87
2023-01-19T16:08:45.107Z,48.81
2023-01-19T16:10:48.463Z,48.95
2023-01-19T16:12:52.582Z,48.91
2023-01-19T16:14:55.671Z,48.84
2023-01-19T16:16:59.890Z,48.84
2023-01-19T16:19:02.769Z,48.81
2023-01-19T16:21:07.176Z,48.84
2023-01-19T16:23:14.853Z,48.79
2023-01-19T16:25:18.479Z,48.86
2023-01-19T16:27:21.388Z,48.88
2023-01-19T16:29:24.207Z,48.73
2023-01-19T16:31:27.130Z,48.81
2023-01-19T16:33:29.918Z,48.81
2023-01-19T16:35:32.589Z,48.77
2023-01-19T16:37:37.071Z,48.84
2023-01-19T16:39:39.780Z,48.88
2023-01-19T16:41:43.831Z,48.86
2023-01-19T16:43:51.674Z,49.04
2023-01-19T16:45:59.054Z,49.07
2023-01-19T16:48:01.926Z,49.07
2023-01-19T16:50:05.217Z,48.91
2023-01-19T16:52:08.239Z,49.22
2023-01-19T16:54:14.530Z,49.11
2023-01-19T16:56:17.212Z,49.15
2023-01-19T16:58:20.076Z,49.01
2023-01-19T17:00:22.922Z,49.01
2023-01-19T17:02:25.897Z,49.08
2023-01-19T17:04:29.471Z,48.94
2023-01-19T17:06:32.726Z,49.00
2023-01-19T17:08:36.429Z,49.12
2023-01-19T17:10:41.940Z,48.99
2023-01-19T17:12:44.785Z,49.02
2023-01-19T17:14:48.257Z,49.20
2023-01-19T17:16:51.486Z,49.14
2023-01-19T17:18:54.649Z,49.19
2023-01-19T17:21:02.253Z,49.05
2023-01-19T17:23:05.119Z,49.03
2023-01-19T17:25:09.033Z,49.17
2023-01-19T17:27:13.571Z,49.26
2023-01-19T17:29:17.362Z,49.24
2023-01-19T17:31:22.244Z,49.19
2023-01-19T17:33:25.995Z,49.28
2023-01-19T17:35:28.764Z,49.28
2023-01-19T17:37:31.623Z,49.19
2023-01-19T17:39:35.153Z,49.12
2023-01-19T17:41:39.138Z,49.08
2023-01-19T17:43:43.765Z,49.08
2023-01-19T17:45:46.676Z,49.11
2023-01-19T17:47:50.211Z,49.24
2023-01-19T17:49:52.984Z,49.21
2023-01-19T17:51:56.065Z,49.29
2023-01-19T17:53:59.704Z,49.29
2023-01-19T17:56:06.258Z,49.26
2023-01-19T17:58:08.962Z,49.29
2023-01-19T18:00:14.663Z,49.34
2023-01-19T18:02:17.632Z,49.41
2023-01-19T18:04:20.355Z,49.51
2023-01-19T18:06:23.640Z,49.47
2023-01-19T18:08:26.386Z,49.50
2023-01-19T18:10:29.233Z,49.36
2023-01-19T18:12:31.990Z,49.43
2023-01-19T18:14:34.657Z,49.40
2023-01-19T18:16:39.744Z,49.48
2023-01-19T18:18:44.011Z,49.53
2023-01-19T18:20:46.780Z,49.50
2023-01-19T18:22:49.417Z,49.61
2023-01-19T18:24:52.195Z,49.71
2023-01-19T18:26:55.767Z,49.76
2023-01-19T18:28:59.229Z,49.72
2023-01-19T18:31:02.309Z,49.51
2023-01-19T18:33:06.721Z,49.60
2023-01-19T18:35:10.021Z,49.52
2023-01-19T18:37:12.655Z,49.75
2023-01-19T18:39:16.008Z,49.60
2023-01-19T18:41:20.502Z,49.81
2023-01-19T18:43:23.165Z,49.71
2023-01-19T18:45:25.858Z,49.71
2023-01-19T18:47:28.580Z,49.69
2023-01-19T18:49:32.522Z,49.63
2023-01-19T18:51:36.588Z,49.77
2023-01-19T18:53:39.579Z,49.71
2023-01-19T18:55:52.077Z,49.72
2023-01-19T18:57:54.905Z,49.41
2023-01-19T18:59:57.520Z,49.56
2023-01-19T19:02:01.404Z,49.51
2023-01-19T19:04:04.184Z,49.52
2023-01-19T19:06:09.104Z,49.34
2023-01-19T19:08:12.103Z,49.37
2023-01-19T19:10:15.339Z,49.36
2023-01-19T19:12:18.209Z,49.24
2023-01-19T19:14:20.826Z,49.15
2023-01-19T19:16:23.930Z,49.38
2023-01-19T19:18:26.725Z,49.19
2023-01-19T19:20:29.680Z,49.11
2023-01-19T19:22:33.989Z,49.00
2023-01-19T19:24:36.627Z,49.04
2023-01-19T19:26:39.294Z,49.11
2023-01-19T19:28:42.319Z,48.88
2023-01-19T19:30:46.463Z,48.85
2023-01-19T19:32:53.943Z,48.81
2023-01-19T19:34:58.751Z,48.89
2023-01-19T19:37:02.368Z,48.80
2023-01-19T19:39:06.992Z,48.84
2023-01-19T19:41:12.211Z,48.75
2023-01-19T19:43:14.937Z,48.88
2023-01-19T19:45:17.738Z,48.82
2023-01-19T19:47:20.740Z,48.99
2023-01-19T19:49:23.935Z,48.72
2023-01-19T19:51:28.480Z,48.65
2023-01-19T19:53:31.122Z,48.66
2023-01-19T19:55:35.093Z,48.83
2023-01-19T19:57:37.939Z,48.45
2023-01-19T19:59:40.951Z,48.81
2023-01-19T20:01:44.951Z,48.75
2023-01-19T20:03:48.074Z,48.67
2023-01-19T20:05:50.724Z,48.77
2023-01-19T20:07:53.333Z,48.66
2023-01-19T20:09:56.206Z,48.69
2023-01-19T20:12:00.363Z,48.78
2023-01-19T20:14:05.873Z,48.60
2023-01-19T20:16:11.134Z,48.68
2023-01-19T20:18:14.073Z,48.63
2023-01-19T20:20:17.285Z,48.46
2023-01-19T20:22:20.020Z,48.54
2023-01-19T20:24:22.662Z,48.62
2023-01-19T20:26:27.756Z,48.50
2023-01-19T20:28:31.765Z,48.43
2023-01-19T20:30:34.594Z,48.60
2023-01-19T21:19:45.613Z,50.14
2023-01-19T21:21:48.372Z,49.76
2023-01-19T21:23:51.157Z,49.51
2023-01-19T21:25:55.903Z,49.18
2023-01-19T21:27:58.660Z,49.09
2023-01-19T21:30:02.296Z,48.94
2023-01-19T21:32:05.224Z,48.75
2023-01-19T21:34:08.088Z,48.71
2023-01-19T21:36:12.999Z,48.49
2023-01-19T21:38:15.803Z,48.39
2023-01-19T21:40:22.474Z,48.35
2023-01-19T21:42:25.325Z,48.31
2023-01-19T21:44:28.443Z,48.44
2023-01-19T21:46:32.972Z,48.36
2023-01-19T21:48:35.726Z,48.32
2023-01-19T21:50:38.492Z,48.27
2023-01-19T21:52:42.592Z,48.14
2023-01-19T21:54:45.345Z,48.16
2023-01-19T21:56:48.044Z,48.03
2023-01-19T21:58:53.259Z,47.96
2023-01-19T22:01:04.017Z,48.04
2023-01-19T22:03:09.107Z,47.93
2023-01-19T22:05:12.549Z,47.83
2023-01-19T22:07:15.631Z,47.86
2023-01-19T22:09:19.735Z,47.61
2023-01-19T22:11:23.439Z,47.59
2023-01-19T22:13:26.213Z,47.49
2023-01-19T22:15:28.862Z,47.54
2023-01-19T22:17:31.757Z,47.59
2023-01-19T22:19:35.858Z,47.36
2023-01-19T22:21:38.689Z,47.45
2023-01-19T22:23:42.174Z,47.31
2023-01-19T22:25:46.191Z,47.42
2023-01-19T22:27:49.245Z,47.32
2023-01-19T22:29:51.952Z,47.30
2023-01-19T22:31:54.848Z,47.35
